createdAt,value
2018-04-02T00:01:47.061Z,93754.92
2018-04-02T00:04:15.135Z,93757.25
2018-04-02T00:06:42.738Z,93753.55
2018-04-02T00:09:10.387Z,93753.20
2018-04-02T00:11:38.021Z,93746.48
2018-04-02T00:14:06.191Z,93752.59
2018-04-02T00:16:33.847Z,93750.52
2018-04-02T00:19:01.432Z,93750.58
2018-04-02T00:21:29.093Z,93744.33
2018-04-02T00:23:56.801Z,93751.98
2018-04-02T00:26:24.952Z,93758.57
2018-04-02T00:28:52.576Z,93755.16
2018-04-02T00:31:20.281Z,93770.64
2018-04-02T00:33:47.934Z,93762.98
2018-04-02T00:36:15.652Z,93760.91
2018-04-02T00:38:43.309Z,93772.59
2018-04-02T00:41:10.968Z,93777.23
2018-04-02T00:43:38.578Z,93780.19
2018-04-02T00:46:06.227Z,93782.89
2018-04-02T00:48:33.822Z,93793.54
2018-04-02T00:51:01.466Z,93806.06
2018-04-02T00:53:29.162Z,93795.49
2018-04-02T00:55:56.812Z,93796.52
2018-04-02T00:58:25.198Z,93799.70
2018-04-02T01:00:52.851Z,93803.52
2018-04-02T01:03:20.479Z,93805.34
2018-04-02T01:05:48.123Z,93800.67
2018-04-02T01:08:16.217Z,93809.96
2018-04-02T01:10:43.962Z,93809.57
2018-04-02T01:13:11.595Z,93802.25
2018-04-02T01:15:39.182Z,93808.72
2018-04-02T01:18:06.854Z,93814.28
2018-04-02T01:20:34.485Z,93817.80
2018-04-02T01:23:02.780Z,93817.39
2018-04-02T01:25:30.486Z,93810.00
2018-04-02T01:27:58.136Z,93814.34
2018-04-02T01:30:25.713Z,93816.23
2018-04-02T01:32:53.331Z,93814.87
2018-04-02T01:35:20.910Z,93816.08
2018-04-02T01:37:48.528Z,93816.23
2018-04-02T01:40:16.173Z,93815.77
2018-04-02T01:42:43.785Z,93826.73
2018-04-02T01:45:11.441Z,93824.06
2018-04-02T01:47:39.087Z,93825.70
2018-04-02T01:50:06.703Z,93814.30
2018-04-02T01:52:34.396Z,93825.58
2018-04-02T01:55:01.988Z,93822.08
2018-04-02T01:57:29.614Z,93809.91
2018-04-02T01:59:57.210Z,93810.89
2018-04-02T02:02:24.894Z,93807.00
2018-04-02T02:04:52.481Z,93812.66
2018-04-02T02:07:20.151Z,93816.08
2018-04-02T02:09:47.745Z,93813.19
2018-04-02T02:12:15.330Z,93819.39
2018-04-02T02:14:42.983Z,93815.22
2018-04-02T02:17:10.569Z,93807.88
2018-04-02T02:19:38.197Z,93806.42
2018-04-02T02:22:05.898Z,93814.22
2018-04-02T02:24:33.532Z,93810.63
2018-04-02T02:27:01.178Z,93804.74
2018-04-02T02:29:28.829Z,93805.50
2018-04-02T02:31:56.406Z,93809.12
2018-04-02T02:34:24.276Z,93800.22
2018-04-02T02:36:51.911Z,93797.92
2018-04-02T02:39:19.659Z,93796.91
2018-04-02T02:41:47.282Z,93796.99
2018-04-02T02:44:14.919Z,93793.45
2018-04-02T02:46:42.558Z,93793.75
2018-04-02T02:49:10.174Z,93796.37
2018-04-02T02:51:37.804Z,93800.80
2018-04-02T02:54:05.406Z,93799.88
2018-04-02T02:56:33.046Z,93798.00
2018-04-02T02:59:00.634Z,93798.04
2018-04-02T03:01:28.245Z,93801.55
2018-04-02T03:03:55.884Z,93793.70
2018-04-02T03:06:23.475Z,93798.62
2018-04-02T03:08:51.130Z,93805.45
2018-04-02T03:11:18.754Z,93797.62
2018-04-02T03:13:46.423Z,93797.08
2018-04-02T03:16:13.997Z,93798.01
2018-04-02T03:18:41.673Z,93801.38
2018-04-02T03:21:09.454Z,93808.77
2018-04-02T03:23:37.108Z,93807.13
2018-04-02T03:26:04.737Z,93800.84
2018-04-02T03:28:32.338Z,93807.98
2018-04-02T03:31:00.005Z,93802.84
2018-04-02T03:33:27.668Z,93804.66
2018-04-02T03:35:55.294Z,93804.70
2018-04-02T03:38:23.050Z,93804.26
2018-04-02T03:40:50.684Z,93816.16
2018-04-02T03:43:18.314Z,93822.13
2018-04-02T03:45:45.952Z,93815.67
2018-04-02T03:48:13.636Z,93815.94
2018-04-02T03:50:41.283Z,93815.45
2018-04-02T03:53:08.895Z,93811.50
2018-04-02T03:55:36.572Z,93815.19
2018-04-02T03:58:04.182Z,93810.27
2018-04-02T04:00:31.846Z,93818.23
2018-04-02T04:02:59.508Z,93818.14
2018-04-02T04:05:27.126Z,93813.37
2018-04-02T04:07:55.100Z,93817.08
2018-04-02T04:10:22.779Z,93817.83
2018-04-02T04:12:50.434Z,93819.78
2018-04-02T04:15:18.099Z,93822.92
2018-04-02T04:17:45.672Z,93824.14
2018-04-02T04:20:13.316Z,93831.55
2018-04-02T04:22:40.951Z,93836.41
2018-04-02T04:25:08.551Z,93835.52
2018-04-02T04:27:36.334Z,93828.76
2018-04-02T04:30:04.003Z,93834.55
2018-04-02T04:32:31.644Z,93840.08
2018-04-02T04:34:59.222Z,93833.59
2018-04-02T04:37:26.889Z,93841.09
2018-04-02T04:39:54.543Z,93836.85
2018-04-02T04:42:22.122Z,93845.72
2018-04-02T04:44:49.719Z,93850.49
2018-04-02T04:47:18.615Z,93849.87
2018-04-02T04:49:46.209Z,93857.08
2018-04-02T04:52:13.816Z,93852.17
2018-04-02T04:54:41.452Z,93857.92
2018-04-02T04:57:10.070Z,93862.43
2018-04-02T04:59:38.744Z,93860.61
2018-04-02T05:02:06.410Z,93864.69
2018-04-02T05:04:34.096Z,93865.92
2018-04-02T05:07:01.788Z,93869.53
2018-04-02T05:09:29.385Z,93871.88
2018-04-02T05:11:57.066Z,93872.36
2018-04-02T05:14:25.399Z,93886.38
2018-04-02T05:16:53.070Z,93880.33
2018-04-02T05:19:20.936Z,93884.57
2018-04-02T05:21:48.610Z,93874.95
2018-04-02T05:24:16.193Z,93879.16
2018-04-02T05:26:43.848Z,93876.55
2018-04-02T05:29:11.439Z,93872.84
2018-04-02T05:31:39.053Z,93869.66
2018-04-02T05:34:06.697Z,93870.75
2018-04-02T05:36:34.274Z,93874.75
2018-04-02T05:39:02.358Z,93877.05
2018-04-02T05:41:30.052Z,93877.59
2018-04-02T05:43:57.704Z,93888.46
2018-04-02T05:46:25.392Z,93886.80
2018-04-02T05:48:53.195Z,93891.70
2018-04-02T05:51:20.808Z,93891.06
2018-04-02T05:53:48.487Z,93891.14
2018-04-02T05:56:16.095Z,93895.42
2018-04-02T05:58:43.715Z,93894.33
2018-04-02T06:01:11.378Z,93887.72
2018-04-02T06:03:39.080Z,93889.99
2018-04-02T06:06:06.704Z,93893.01
2018-04-02T06:08:34.370Z,93902.33
2018-04-02T06:11:01.960Z,93893.03
2018-04-02T06:13:29.859Z,93890.86
2018-04-02T06:15:57.471Z,93892.66
2018-04-02T06:18:25.162Z,93898.09
2018-04-02T06:20:53.107Z,93893.33
2018-04-02T06:23:20.761Z,93894.14
2018-04-02T06:25:48.375Z,93888.28
2018-04-02T06:28:16.036Z,93893.83
2018-04-02T06:30:44.903Z,93892.53
2018-04-02T06:33:12.638Z,93885.78
2018-04-02T06:35:40.301Z,93892.62
2018-04-02T06:38:08.179Z,93893.55
2018-04-02T06:40:35.841Z,93899.39
2018-04-02T06:43:03.458Z,93896.69
2018-04-02T06:45:31.137Z,93902.30
2018-04-02T06:47:59.131Z,93898.85
2018-04-02T06:50:26.791Z,93893.34
2018-04-02T06:52:54.490Z,93893.55
2018-04-02T06:55:22.095Z,93893.98
2018-04-02T06:57:49.988Z,93891.66
2018-04-02T07:00:18.897Z,93895.76
2018-04-02T07:02:46.505Z,93901.95
2018-04-02T07:05:14.257Z,93898.27
2018-04-02T07:07:42.046Z,93895.95
2018-04-02T07:10:09.657Z,93895.16
2018-04-02T07:12:37.307Z,93897.77
2018-04-02T07:15:05.346Z,93903.67
2018-04-02T07:17:33.119Z,93898.89
2018-04-02T07:20:00.810Z,93902.80
2018-04-02T07:22:28.538Z,93905.51
2018-04-02T07:24:56.208Z,93899.38
2018-04-02T07:27:23.871Z,93900.28
2018-04-02T07:29:52.353Z,93904.40
2018-04-02T07:32:20.222Z,93905.13
2018-04-02T07:34:49.011Z,93907.55
2018-04-02T07:37:16.779Z,93904.11
2018-04-02T07:39:44.572Z,93902.73
2018-04-02T07:42:12.198Z,93907.25
2018-04-02T07:44:40.069Z,93907.57
2018-04-02T07:47:07.806Z,93905.06
2018-04-02T07:49:35.511Z,93908.80
2018-04-02T07:52:04.371Z,93910.57
2018-04-02T07:54:32.984Z,93911.23
2018-04-02T07:57:01.042Z,93915.83
2018-04-02T07:59:28.708Z,93915.58
2018-04-02T08:01:56.453Z,93916.81
2018-04-02T08:04:24.280Z,93912.92
2018-04-02T08:06:51.902Z,93916.47
2018-04-02T08:09:19.573Z,93919.83
2018-04-02T08:11:47.524Z,93912.55
2018-04-02T08:14:16.276Z,93916.44
2018-04-02T08:16:44.285Z,93909.47
2018-04-02T08:19:12.147Z,93905.52
2018-04-02T08:21:39.802Z,93901.41
2018-04-02T08:24:07.457Z,93901.25
2018-04-02T08:26:35.157Z,93901.27
2018-04-02T08:29:02.817Z,93901.95
2018-04-02T08:31:30.467Z,93895.87
2018-04-02T08:33:58.252Z,93903.17
2018-04-02T08:36:25.930Z,93906.06
2018-04-02T08:38:53.679Z,93898.50
2018-04-02T08:41:21.318Z,93906.03
2018-04-02T08:43:49.014Z,93899.45
2018-04-02T08:46:16.678Z,93903.69
2018-04-02T08:48:44.379Z,93904.31
2018-04-02T08:51:12.112Z,93910.03
2018-04-02T08:53:39.784Z,93913.73
2018-04-02T08:56:07.454Z,93921.69
2018-04-02T08:58:36.143Z,93916.98
2018-04-02T09:01:03.797Z,93910.29
2018-04-02T09:03:31.527Z,93907.89
2018-04-02T09:06:00.472Z,93901.69
2018-04-02T09:08:28.254Z,93902.20
2018-04-02T09:10:56.004Z,93892.23
2018-04-02T09:13:23.674Z,93895.97
2018-04-02T09:15:51.674Z,93890.53
2018-04-02T09:18:19.356Z,93889.52
2018-04-02T09:20:47.860Z,93895.37
2018-04-02T09:23:15.576Z,93895.16
2018-04-02T09:25:43.550Z,93885.99
2018-04-02T09:28:11.235Z,93891.52
2018-04-02T09:30:38.988Z,93890.06
2018-04-02T09:33:06.595Z,93887.53
2018-04-02T09:35:34.304Z,93880.15
2018-04-02T09:38:01.971Z,93881.20
2018-04-02T09:40:29.654Z,93877.76
2018-04-02T09:42:57.281Z,93868.55
2018-04-02T09:45:24.976Z,93871.69
2018-04-02T09:47:52.646Z,93863.61
2018-04-02T09:50:20.374Z,93861.31
2018-04-02T09:52:48.006Z,93862.84
2018-04-02T09:55:15.706Z,93859.27
2018-04-02T09:57:43.335Z,93861.67
2018-04-02T10:00:11.001Z,93856.72
2018-04-02T10:02:38.697Z,93852.14
2018-04-02T10:05:06.489Z,93854.91
2018-04-02T10:07:34.111Z,93852.38
2018-04-02T10:10:01.919Z,93850.20
2018-04-02T10:12:29.537Z,93844.42
2018-04-02T10:14:57.592Z,93844.13
2018-04-02T10:17:25.383Z,93838.52
2018-04-02T10:19:53.090Z,93834.08
2018-04-02T10:22:20.891Z,93839.25
2018-04-02T10:24:48.543Z,93836.19
2018-04-02T10:27:16.171Z,93828.60
2018-04-02T10:29:43.894Z,93831.81
2018-04-02T10:32:11.495Z,93823.94
2018-04-02T10:34:39.576Z,93818.56
2018-04-02T10:37:08.619Z,93814.94
2018-04-02T10:39:36.288Z,93812.17
2018-04-02T10:42:03.975Z,93814.14
2018-04-02T10:44:31.640Z,93806.63
2018-04-02T10:46:59.274Z,93804.62
2018-04-02T10:49:27.003Z,93802.36
2018-04-02T10:51:54.622Z,93793.70
2018-04-02T10:54:22.303Z,93798.80
2018-04-02T10:56:49.960Z,93794.03
2018-04-02T10:59:17.636Z,93791.98
2018-04-02T11:01:45.288Z,93792.31
2018-04-02T11:04:12.957Z,93781.85
2018-04-02T11:06:40.583Z,93782.19
2018-04-02T11:09:08.762Z,93782.73
2018-04-02T11:11:36.498Z,93782.00
2018-04-02T11:14:04.107Z,93779.87
2018-04-02T11:16:31.829Z,93772.63
2018-04-02T11:18:59.478Z,93773.17
2018-04-02T11:21:27.138Z,93776.10
2018-04-02T11:23:54.821Z,93766.34
2018-04-02T11:26:22.491Z,93761.67
2018-04-02T11:28:50.196Z,93760.35
2018-04-02T11:31:17.864Z,93751.41
2018-04-02T11:33:45.528Z,93748.28
2018-04-02T11:36:13.437Z,93752.05
2018-04-02T11:38:41.096Z,93744.59
2018-04-02T11:41:08.810Z,93741.45
2018-04-02T11:43:36.438Z,93735.30
2018-04-02T11:46:04.104Z,93733.20
2018-04-02T11:48:31.802Z,93731.37
2018-04-02T11:50:59.578Z,93730.84
2018-04-02T11:53:27.182Z,93724.52
2018-04-02T11:55:54.845Z,93727.70
2018-04-02T11:58:22.543Z,93725.27
2018-04-02T12:00:50.247Z,93723.79
2018-04-02T12:03:17.859Z,93719.50
2018-04-02T12:05:45.519Z,93712.91
2018-04-02T12:08:13.194Z,93712.23
2018-04-02T12:10:40.856Z,93711.10
2018-04-02T12:13:08.525Z,93706.88
2018-04-02T12:15:36.141Z,93700.04
2018-04-02T12:18:03.765Z,93697.64
2018-04-02T12:20:31.440Z,93695.05
2018-04-02T12:22:59.134Z,93696.38
2018-04-02T12:25:28.193Z,93700.09
2018-04-02T12:27:55.873Z,93691.25
2018-04-02T12:30:23.560Z,93691.09
2018-04-02T12:32:51.298Z,93675.91
2018-04-02T12:35:18.979Z,93678.80
2018-04-02T12:37:46.673Z,93676.05
2018-04-02T12:40:14.431Z,93671.37
2018-04-02T12:42:42.047Z,93667.48
2018-04-02T12:45:09.696Z,93659.05
2018-04-02T12:47:37.388Z,93663.14
2018-04-02T12:50:05.014Z,93664.14
2018-04-02T12:52:32.645Z,93654.38
2018-04-02T12:55:00.258Z,93659.86
2018-04-02T12:57:27.922Z,93656.73
2018-04-02T12:59:55.529Z,93653.02
2018-04-02T13:02:23.310Z,93659.38
2018-04-02T13:04:51.014Z,93654.16
2018-04-02T13:07:18.669Z,93645.42
2018-04-02T13:09:46.273Z,93644.39
2018-04-02T13:12:14.433Z,93647.51
2018-04-02T13:14:42.088Z,93644.69
2018-04-02T13:17:09.757Z,93638.42
2018-04-02T13:19:37.399Z,93639.13
2018-04-02T13:22:05.022Z,93642.66
2018-04-02T13:24:32.700Z,93639.80
2018-04-02T13:27:00.351Z,93637.25
2018-04-02T13:29:27.936Z,93634.31
2018-04-02T13:31:55.704Z,93630.25
2018-04-02T13:34:23.393Z,93621.73
2018-04-02T13:36:51.024Z,93621.00
2018-04-02T13:39:18.662Z,93618.39
2018-04-02T13:41:46.266Z,93611.05
2018-04-02T13:44:14.015Z,93612.73
2018-04-02T13:46:41.607Z,93616.35
2018-04-02T13:49:11.518Z,93616.16
2018-04-02T13:51:41.116Z,93618.25
2018-04-02T13:54:10.446Z,93619.50
2018-04-02T13:56:38.334Z,93604.90
2018-04-02T13:59:06.205Z,93603.81
2018-04-02T14:01:34.779Z,93600.42
2018-04-02T14:04:02.851Z,93587.70
2018-04-02T14:06:30.540Z,93588.12
2018-04-02T14:08:58.220Z,93595.96
2018-04-02T14:11:26.244Z,93591.94
2018-04-02T14:13:53.916Z,93593.80
2018-04-02T14:16:22.123Z,93590.97
2018-04-02T14:18:49.897Z,93590.66
2018-04-02T14:21:17.527Z,93588.48
2018-04-02T14:23:45.160Z,93583.63
2018-04-02T14:26:12.812Z,93587.31
2018-04-02T14:28:40.482Z,93578.14
2018-04-02T14:31:08.913Z,93570.00
2018-04-02T14:33:36.534Z,93567.64
2018-04-02T14:36:04.237Z,93567.34
2018-04-02T14:38:31.872Z,93564.17
2018-04-02T14:40:59.520Z,93561.37
2018-04-02T14:43:27.131Z,93564.22
2018-04-02T14:45:54.784Z,93565.61
2018-04-02T14:48:22.433Z,93551.02
2018-04-02T14:50:50.052Z,93556.10
2018-04-02T14:53:17.641Z,93554.66
2018-04-02T14:55:45.513Z,93555.45
2018-04-02T14:58:14.129Z,93547.88
2018-04-02T15:00:42.688Z,93549.31
2018-04-02T15:03:10.355Z,93546.72
2018-04-02T15:05:38.109Z,93540.16
2018-04-02T15:08:06.164Z,93538.08
2018-04-02T15:10:33.828Z,93535.86
2018-04-02T15:13:01.736Z,93535.34
2018-04-02T15:15:29.456Z,93537.52
2018-04-02T15:17:57.100Z,93535.17
2018-04-02T15:20:24.721Z,93535.81
2018-04-02T15:22:52.449Z,93536.91
2018-04-02T15:25:20.048Z,93539.02
2018-04-02T15:27:47.710Z,93533.98
2018-04-02T15:30:15.355Z,93541.47
2018-04-02T15:32:43.000Z,93538.72
2018-04-02T15:35:10.679Z,93528.77
2018-04-02T15:37:38.394Z,93530.37
2018-04-02T15:40:06.108Z,93526.23
2018-04-02T15:42:34.903Z,93523.48
2018-04-02T15:45:02.584Z,93523.07
2018-04-02T15:47:30.503Z,93521.75
2018-04-02T15:49:58.176Z,93522.05
2018-04-02T15:52:25.830Z,93520.99
2018-04-02T15:54:53.459Z,93517.64
2018-04-02T15:57:21.090Z,93525.71
2018-04-02T15:59:48.875Z,93526.83
2018-04-02T16:02:16.585Z,93528.11
2018-04-02T16:04:44.310Z,93527.00
2018-04-02T16:07:11.959Z,93528.74
2018-04-02T16:09:39.727Z,93532.27
2018-04-02T16:12:08.144Z,93538.81
2018-04-02T16:14:35.817Z,93536.83
2018-04-02T16:17:03.525Z,93548.47
2018-04-02T16:19:31.447Z,93548.23
2018-04-02T16:21:59.134Z,93552.21
2018-04-02T16:24:26.850Z,93551.69
2018-04-02T16:26:54.945Z,93551.65
2018-04-02T16:29:22.631Z,93547.72
2018-04-02T16:31:50.300Z,93547.06
2018-04-02T16:34:19.242Z,93547.45
2018-04-02T16:36:47.839Z,93543.42
2018-04-02T16:39:15.610Z,93541.20
2018-04-02T16:41:43.262Z,93547.06
2018-04-02T16:44:11.041Z,93542.55
2018-04-02T16:46:38.841Z,93542.08
2018-04-02T16:49:06.576Z,93540.50
2018-04-02T16:51:34.258Z,93540.27
2018-04-02T16:54:01.932Z,93541.20
2018-04-02T16:56:29.637Z,93540.86
2018-04-02T16:58:57.325Z,93547.12
2018-04-02T17:01:24.994Z,93539.83
2018-04-02T17:03:52.699Z,93540.66
2018-04-02T17:06:20.377Z,93535.42
2018-04-02T17:08:48.098Z,93540.85
2018-04-02T17:11:15.837Z,93548.40
2018-04-02T17:13:43.569Z,93547.89
2018-04-02T17:16:12.537Z,93550.78
2018-04-02T17:18:41.325Z,93556.28
2018-04-02T17:21:09.063Z,93559.89
2018-04-02T17:23:36.852Z,93560.18
2018-04-02T17:26:05.764Z,93564.77
2018-04-02T17:28:33.504Z,93571.18
2018-04-02T17:31:01.357Z,93575.06
2018-04-02T17:33:29.148Z,93567.05
2018-04-02T17:35:57.220Z,93568.22
2018-04-02T17:38:24.965Z,93568.45
2018-04-02T17:40:52.718Z,93535.56
2018-04-02T17:43:20.599Z,93581.84
2018-04-02T17:45:48.570Z,93582.52
2018-04-02T17:48:16.430Z,93579.80
2018-04-02T17:50:44.204Z,93590.41
2018-04-02T17:53:11.906Z,93592.34
2018-04-02T17:55:39.826Z,93594.06
2018-04-02T17:58:07.504Z,93594.74
2018-04-02T18:00:35.174Z,93599.86
2018-04-02T18:03:02.913Z,93604.43
2018-04-02T18:05:30.619Z,93608.95
2018-04-02T18:07:58.370Z,93609.37
2018-04-02T18:10:26.610Z,93608.19
2018-04-02T18:12:54.525Z,93602.11
2018-04-02T18:15:22.334Z,93602.02
2018-04-02T18:17:50.128Z,93600.30
2018-04-02T18:20:19.433Z,93604.33
2018-04-02T18:22:47.380Z,93602.30
2018-04-02T18:25:15.187Z,93609.14
2018-04-02T18:27:42.881Z,93605.05
2018-04-02T18:30:12.027Z,93605.02
2018-04-02T18:32:39.851Z,93605.76
2018-04-02T18:35:07.548Z,93604.74
2018-04-02T18:37:35.855Z,93607.95
2018-04-02T18:40:04.456Z,93614.91
2018-04-02T18:42:32.535Z,93615.97
2018-04-02T18:45:01.641Z,93615.02
2018-04-02T18:47:30.093Z,93612.86
2018-04-02T18:49:57.883Z,93626.07
2018-04-02T18:52:26.068Z,93623.72
2018-04-02T18:54:55.350Z,93631.55
2018-04-02T18:57:25.741Z,93637.81
2018-04-02T18:59:53.463Z,93643.07
2018-04-02T19:02:21.162Z,93646.78
2018-04-02T19:04:49.183Z,93651.22
2018-04-02T19:07:17.411Z,93648.86
2018-04-02T19:09:45.482Z,93650.23
2018-04-02T19:12:13.669Z,93652.85
2018-04-02T19:14:42.670Z,93658.19
2018-04-02T19:17:10.679Z,93656.10
2018-04-02T19:19:39.984Z,93659.45
2018-04-02T19:22:08.090Z,93664.77
2018-04-02T19:24:36.878Z,93666.05
2018-04-02T19:27:06.375Z,93666.06
2018-04-02T19:29:34.835Z,93656.58
2018-04-02T19:32:02.627Z,93667.44
2018-04-02T19:34:30.259Z,93664.59
2018-04-02T19:36:58.934Z,93670.95
2018-04-02T19:39:26.571Z,93670.67
2018-04-02T19:41:54.213Z,93671.39
2018-04-02T19:44:22.001Z,93672.47
2018-04-02T19:46:49.676Z,93676.42
2018-04-02T19:49:17.491Z,93676.13
2018-04-02T19:51:45.188Z,93676.95
2018-04-02T19:54:12.906Z,93678.45
2018-04-02T19:56:40.601Z,93678.95
2018-04-02T19:59:08.249Z,93679.13
2018-04-02T20:01:35.960Z,93677.95
2018-04-02T20:04:04.501Z,93676.23
2018-04-02T20:06:33.174Z,93675.83
2018-04-02T20:09:00.841Z,93690.23
2018-04-02T20:11:28.549Z,93692.14
2018-04-02T20:13:56.229Z,93688.91
2018-04-02T20:16:24.078Z,93689.96
2018-04-02T20:18:51.780Z,93689.58
2018-04-02T20:21:19.368Z,93689.16
2018-04-02T20:23:47.064Z,93679.55
2018-04-02T20:26:14.821Z,93680.09
2018-04-02T20:28:42.449Z,93683.14
2018-04-02T20:31:10.061Z,93671.67
2018-04-02T20:33:37.719Z,93674.77
2018-04-02T20:36:05.353Z,93679.89
2018-04-02T20:38:33.028Z,93672.75
2018-04-02T20:41:00.664Z,93681.52
2018-04-02T20:43:28.356Z,93682.47
2018-04-02T20:45:55.983Z,93676.17
2018-04-02T20:48:23.660Z,93684.16
2018-04-02T20:50:51.429Z,93683.19
2018-04-02T20:53:19.957Z,93685.06
2018-04-02T20:55:47.592Z,93682.20
2018-04-02T20:58:15.304Z,93681.13
2018-04-02T21:00:42.982Z,93678.88
2018-04-02T21:03:10.700Z,93671.13
2018-04-02T21:05:38.330Z,93675.80
2018-04-02T21:08:05.979Z,93680.31
2018-04-02T21:10:33.678Z,93674.67
2018-04-02T21:13:01.312Z,93670.14
2018-04-02T21:15:29.076Z,93670.64
2018-04-02T21:17:56.719Z,93674.91
2018-04-02T21:20:24.366Z,93674.61
2018-04-02T21:22:52.100Z,93671.53
2018-04-02T21:25:19.763Z,93670.16
2018-04-02T21:27:47.423Z,93671.35
2018-04-02T21:30:15.140Z,93668.97
2018-04-02T21:32:43.428Z,93668.48
2018-04-02T21:35:11.169Z,93673.97
2018-04-02T21:37:38.867Z,93662.66
2018-04-02T21:40:06.516Z,93663.66
2018-04-02T21:42:34.204Z,93660.98
2018-04-02T21:45:01.924Z,93665.36
2018-04-02T21:47:29.625Z,93665.56
2018-04-02T21:49:57.455Z,93657.30
2018-04-02T21:52:25.156Z,93661.40
2018-04-02T21:54:52.778Z,93662.98
2018-04-02T21:57:20.433Z,93656.64
2018-04-02T21:59:48.039Z,93651.89
2018-04-02T22:02:15.838Z,93645.64
2018-04-02T22:04:43.495Z,93646.04
2018-04-02T22:07:11.180Z,93638.14
2018-04-02T22:09:38.788Z,93630.34
2018-04-02T22:12:06.470Z,93623.70
2018-04-02T22:14:35.597Z,93624.89
2018-04-02T22:17:04.197Z,93624.11
2018-04-02T22:19:31.943Z,93627.17
2018-04-02T22:21:59.817Z,93630.45
2018-04-02T22:24:28.307Z,93628.47
2018-04-02T22:26:56.175Z,93634.70
2018-04-02T22:29:23.891Z,93638.47
2018-04-02T22:31:52.310Z,93641.66
2018-04-02T22:34:19.922Z,93641.44
2018-04-02T22:36:47.845Z,93644.13
2018-04-02T22:39:15.473Z,93644.63
2018-04-02T22:41:43.544Z,93640.37
2018-04-02T22:44:11.233Z,93646.59
2018-04-02T22:46:38.844Z,93645.32
2018-04-02T22:49:06.521Z,93638.58
2018-04-02T22:51:34.126Z,93641.93
2018-04-02T22:54:01.808Z,93641.54
2018-04-02T22:56:29.447Z,93640.64
2018-04-02T22:58:57.118Z,93638.17
2018-04-02T23:01:24.813Z,93634.31
2018-04-02T23:03:52.552Z,93636.50
2018-04-02T23:06:20.236Z,93638.37
2018-04-02T23:08:47.857Z,93641.00
2018-04-02T23:11:15.574Z,93647.05
2018-04-02T23:13:43.258Z,93644.68
2018-04-02T23:16:11.268Z,93643.91
2018-04-02T23:18:38.901Z,93649.80
2018-04-02T23:21:06.500Z,93659.72
2018-04-02T23:23:34.206Z,93661.45
2018-04-02T23:26:01.885Z,93647.39
2018-04-02T23:28:29.506Z,93655.31
2018-04-02T23:30:57.158Z,93652.15
2018-04-02T23:33:24.903Z,93655.47
2018-04-02T23:35:52.927Z,93651.04
2018-04-02T23:38:20.620Z,93650.55
2018-04-02T23:40:48.225Z,93652.64
2018-04-02T23:43:15.867Z,93653.16
2018-04-02T23:45:43.446Z,93650.53
2018-04-02T23:48:11.017Z,93644.83
2018-04-02T23:50:38.681Z,93643.64
2018-04-02T23:53:06.333Z,93637.21
2018-04-02T23:55:33.970Z,93627.74
2018-04-02T23:58:01.619Z,93620.80
